sensor_id;sensor_type;location;lat;lon;timestamp;temperature;humidity
28075;DHT22;15385;51.088;6.572;2023-05-16T00:02:17;15.10;99.90
28075;DHT22;15385;51.088;6.572;2023-05-16T00:04:48;14.80;99.90
28075;DHT22;15385;51.088;6.572;2023-05-16T00:07:19;14.80;99.90
28075;DHT22;15385;51.088;6.572;2023-05-16T00:09:49;14.80;99.90
28075;DHT22;15385;51.088;6.572;2023-05-16T00:12:20;14.80;99.90
28075;DHT22;15385;51.088;6.572;2023-05-16T00:14:52;14.70;99.90
28075;DHT22;15385;51.088;6.572;2023-05-16T00:17:22;14.60;99.90
28075;DHT22;15385;51.088;6.572;2023-05-16T00:19:54;14.70;99.90
28075;DHT22;15385;51.088;6.572;2023-05-16T00:22:27;14.70;99.90
28075;DHT22;15385;51.088;6.572;2023-05-16T00:24:58;14.50;99.90
28075;DHT22;15385;51.088;6.572;2023-05-16T00:27:28;14.40;99.90
28075;DHT22;15385;51.088;6.572;2023-05-16T00:30:00;14.30;99.90
28075;DHT22;15385;51.088;6.572;2023-05-16T00:32:31;14.10;99.90
28075;DHT22;15385;51.088;6.572;2023-05-16T00:35:02;14.00;99.90
28075;DHT22;15385;51.088;6.572;2023-05-16T00:37:32;13.90;99.90
28075;DHT22;15385;51.088;6.572;2023-05-16T00:40:03;13.80;99.90
28075;DHT22;15385;51.088;6.572;2023-05-16T00:42:34;13.80;99.90
28075;DHT22;15385;51.088;6.572;2023-05-16T00:45:05;13.70;99.90
28075;DHT22;15385;51.088;6.572;2023-05-16T00:47:36;13.70;99.90
28075;DHT22;15385;51.088;6.572;2023-05-16T00:50:07;13.80;99.90
28075;DHT22;15385;51.088;6.572;2023-05-16T00:52:38;13.80;99.90
28075;DHT22;15385;51.088;6.572;2023-05-16T00:55:09;13.80;99.90
28075;DHT22;15385;51.088;6.572;2023-05-16T00:57:40;13.80;99.90
28075;DHT22;15385;51.088;6.572;2023-05-16T01:00:11;13.70;99.90
28075;DHT22;15385;51.088;6.572;2023-05-16T01:02:45;13.70;99.90
28075;DHT22;15385;51.088;6.572;2023-05-16T01:05:17;13.80;99.90
28075;DHT22;15385;51.088;6.572;2023-05-16T01:07:48;13.80;99.90
28075;DHT22;15385;51.088;6.572;2023-05-16T01:10:18;13.90;99.90
28075;DHT22;15385;51.088;6.572;2023-05-16T01:16:03;13.90;99.90
28075;DHT22;15385;51.088;6.572;2023-05-16T01:19:03;13.90;99.90
28075;DHT22;15385;51.088;6.572;2023-05-16T01:22:02;13.80;99.90
28075;DHT22;15385;51.088;6.572;2023-05-16T01:24:43;13.80;99.90
28075;DHT22;15385;51.088;6.572;2023-05-16T01:27:20;13.80;99.90
28075;DHT22;15385;51.088;6.572;2023-05-16T01:29:55;13.60;99.90
28075;DHT22;15385;51.088;6.572;2023-05-16T01:32:26;13.70;99.90
28075;DHT22;15385;51.088;6.572;2023-05-16T01:34:56;13.60;99.90
28075;DHT22;15385;51.088;6.572;2023-05-16T01:38:02;13.60;99.90
28075;DHT22;15385;51.088;6.572;2023-05-16T01:40:47;13.40;99.90
28075;DHT22;15385;51.088;6.572;2023-05-16T01:43:34;13.30;99.90
28075;DHT22;15385;51.088;6.572;2023-05-16T01:46:14;13.30;99.90
28075;DHT22;15385;51.088;6.572;2023-05-16T01:51:30;13.60;99.90
28075;DHT22;15385;51.088;6.572;2023-05-16T01:54:11;13.60;99.90
28075;DHT22;15385;51.088;6.572;2023-05-16T01:56:51;13.50;99.90
28075;DHT22;15385;51.088;6.572;2023-05-16T01:59:23;13.30;99.90
28075;DHT22;15385;51.088;6.572;2023-05-16T02:01:56;13.30;99.90
28075;DHT22;15385;51.088;6.572;2023-05-16T02:04:26;13.50;99.90
28075;DHT22;15385;51.088;6.572;2023-05-16T02:06:57;13.50;99.90
28075;DHT22;15385;51.088;6.572;2023-05-16T02:09:29;13.40;99.90
28075;DHT22;15385;51.088;6.572;2023-05-16T02:12:00;13.30;99.90
28075;DHT22;15385;51.088;6.572;2023-05-16T02:14:31;13.40;99.90
28075;DHT22;15385;51.088;6.572;2023-05-16T02:17:02;13.30;99.90
28075;DHT22;15385;51.088;6.572;2023-05-16T02:19:32;13.30;99.90
28075;DHT22;15385;51.088;6.572;2023-05-16T02:22:03;13.30;99.90
28075;DHT22;15385;51.088;6.572;2023-05-16T02:24:34;13.40;99.90
28075;DHT22;15385;51.088;6.572;2023-05-16T02:27:04;13.40;99.90
28075;DHT22;15385;51.088;6.572;2023-05-16T02:29:35;13.40;99.90
28075;DHT22;15385;51.088;6.572;2023-05-16T02:32:06;13.40;99.90
28075;DHT22;15385;51.088;6.572;2023-05-16T02:34:36;13.50;99.90
28075;DHT22;15385;51.088;6.572;2023-05-16T02:37:07;13.50;99.90
28075;DHT22;15385;51.088;6.572;2023-05-16T02:39:38;13.40;99.90
28075;DHT22;15385;51.088;6.572;2023-05-16T02:42:09;13.30;99.90
28075;DHT22;15385;51.088;6.572;2023-05-16T02:44:39;13.20;99.90
28075;DHT22;15385;51.088;6.572;2023-05-16T02:47:10;13.30;99.90
28075;DHT22;15385;51.088;6.572;2023-05-16T02:49:41;13.40;99.90
28075;DHT22;15385;51.088;6.572;2023-05-16T02:52:11;13.40;99.90
28075;DHT22;15385;51.088;6.572;2023-05-16T02:54:42;13.30;99.90
28075;DHT22;15385;51.088;6.572;2023-05-16T02:57:13;13.30;99.90
28075;DHT22;15385;51.088;6.572;2023-05-16T02:59:43;13.40;99.90
28075;DHT22;15385;51.088;6.572;2023-05-16T03:02:14;13.40;99.90
28075;DHT22;15385;51.088;6.572;2023-05-16T03:04:45;13.30;99.90
28075;DHT22;15385;51.088;6.572;2023-05-16T03:07:15;13.30;99.90
28075;DHT22;15385;51.088;6.572;2023-05-16T03:09:46;13.20;99.90
28075;DHT22;15385;51.088;6.572;2023-05-16T03:12:16;13.20;99.90
28075;DHT22;15385;51.088;6.572;2023-05-16T03:14:47;13.20;99.90
28075;DHT22;15385;51.088;6.572;2023-05-16T03:17:17;13.10;99.90
28075;DHT22;15385;51.088;6.572;2023-05-16T03:19:48;13.00;99.90
28075;DHT22;15385;51.088;6.572;2023-05-16T03:22:19;13.10;99.90
28075;DHT22;15385;51.088;6.572;2023-05-16T03:24:50;13.10;99.90
28075;DHT22;15385;51.088;6.572;2023-05-16T03:27:21;13.00;99.90
28075;DHT22;15385;51.088;6.572;2023-05-16T03:29:52;13.00;99.90
28075;DHT22;15385;51.088;6.572;2023-05-16T03:32:22;12.90;99.90
28075;DHT22;15385;51.088;6.572;2023-05-16T03:34:53;12.80;99.90
28075;DHT22;15385;51.088;6.572;2023-05-16T03:37:24;12.80;99.90
28075;DHT22;15385;51.088;6.572;2023-05-16T03:39:55;12.80;99.90
28075;DHT22;15385;51.088;6.572;2023-05-16T03:42:26;12.80;99.90
28075;DHT22;15385;51.088;6.572;2023-05-16T03:44:57;12.80;99.90
28075;DHT22;15385;51.088;6.572;2023-05-16T03:47:27;12.60;99.90
28075;DHT22;15385;51.088;6.572;2023-05-16T03:50:00;12.40;99.90
28075;DHT22;15385;51.088;6.572;2023-05-16T03:52:31;12.30;99.90
28075;DHT22;15385;51.088;6.572;2023-05-16T03:55:01;12.40;99.90
28075;DHT22;15385;51.088;6.572;2023-05-16T03:57:36;12.40;99.90
28075;DHT22;15385;51.088;6.572;2023-05-16T04:00:09;12.40;99.90
28075;DHT22;15385;51.088;6.572;2023-05-16T04:02:41;12.40;99.90
28075;DHT22;15385;51.088;6.572;2023-05-16T04:05:13;12.40;99.90
28075;DHT22;15385;51.088;6.572;2023-05-16T04:07:43;12.30;99.90
28075;DHT22;15385;51.088;6.572;2023-05-16T04:10:14;12.30;99.90
28075;DHT22;15385;51.088;6.572;2023-05-16T04:12:45;12.30;99.90
28075;DHT22;15385;51.088;6.572;2023-05-16T04:15:15;12.20;99.90
28075;DHT22;15385;51.088;6.572;2023-05-16T04:17:46;12.20;99.90
28075;DHT22;15385;51.088;6.572;2023-05-16T04:20:17;12.20;99.90
28075;DHT22;15385;51.088;6.572;2023-05-16T04:22:47;12.10;99.90
28075;DHT22;15385;51.088;6.572;2023-05-16T04:25:18;12.00;99.90
28075;DHT22;15385;51.088;6.572;2023-05-16T04:27:49;12.00;99.90
28075;DHT22;15385;51.088;6.572;2023-05-16T04:30:19;12.00;99.90
28075;DHT22;15385;51.088;6.572;2023-05-16T04:32:50;12.00;99.90
28075;DHT22;15385;51.088;6.572;2023-05-16T04:35:20;12.00;99.90
28075;DHT22;15385;51.088;6.572;2023-05-16T04:37:51;12.00;99.90
28075;DHT22;15385;51.088;6.572;2023-05-16T04:40:22;11.90;99.90
28075;DHT22;15385;51.088;6.572;2023-05-16T04:42:54;11.90;99.90
28075;DHT22;15385;51.088;6.572;2023-05-16T04:45:25;11.90;99.90
28075;DHT22;15385;51.088;6.572;2023-05-16T04:47:55;12.00;99.90
28075;DHT22;15385;51.088;6.572;2023-05-16T04:50:26;11.90;99.90
28075;DHT22;15385;51.088;6.572;2023-05-16T04:52:56;12.00;99.90
28075;DHT22;15385;51.088;6.572;2023-05-16T04:55:27;12.00;99.90
28075;DHT22;15385;51.088;6.572;2023-05-16T04:57:57;12.10;99.90
28075;DHT22;15385;51.088;6.572;2023-05-16T05:00:28;12.10;99.90
28075;DHT22;15385;51.088;6.572;2023-05-16T05:02:59;12.10;99.90
28075;DHT22;15385;51.088;6.572;2023-05-16T05:05:29;12.20;99.90
28075;DHT22;15385;51.088;6.572;2023-05-16T05:08:00;12.30;99.90
28075;DHT22;15385;51.088;6.572;2023-05-16T05:10:30;12.30;99.90
28075;DHT22;15385;51.088;6.572;2023-05-16T05:13:01;12.30;99.90
28075;DHT22;15385;51.088;6.572;2023-05-16T05:15:32;12.30;99.90
28075;DHT22;15385;51.088;6.572;2023-05-16T05:18:02;12.30;99.90
28075;DHT22;15385;51.088;6.572;2023-05-16T05:20:33;12.30;99.90
28075;DHT22;15385;51.088;6.572;2023-05-16T05:23:04;12.30;99.90
28075;DHT22;15385;51.088;6.572;2023-05-16T05:25:38;12.30;99.90
28075;DHT22;15385;51.088;6.572;2023-05-16T05:28:09;12.30;99.90
28075;DHT22;15385;51.088;6.572;2023-05-16T05:30:40;12.40;99.90
28075;DHT22;15385;51.088;6.572;2023-05-16T05:33:12;12.50;99.90
28075;DHT22;15385;51.088;6.572;2023-05-16T05:35:43;12.60;99.90
28075;DHT22;15385;51.088;6.572;2023-05-16T05:38:14;12.60;99.90
28075;DHT22;15385;51.088;6.572;2023-05-16T05:40:45;12.60;99.90
28075;DHT22;15385;51.088;6.572;2023-05-16T05:43:16;12.60;99.90
28075;DHT22;15385;51.088;6.572;2023-05-16T05:45:46;12.70;99.90
28075;DHT22;15385;51.088;6.572;2023-05-16T05:48:17;12.80;99.90
28075;DHT22;15385;51.088;6.572;2023-05-16T05:50:48;12.80;99.90
28075;DHT22;15385;51.088;6.572;2023-05-16T05:53:18;12.70;99.90
28075;DHT22;15385;51.088;6.572;2023-05-16T05:55:49;12.60;99.90
28075;DHT22;15385;51.088;6.572;2023-05-16T05:58:20;12.70;99.90
28075;DHT22;15385;51.088;6.572;2023-05-16T06:00:51;12.70;99.90
28075;DHT22;15385;51.088;6.572;2023-05-16T06:03:21;12.70;99.90
28075;DHT22;15385;51.088;6.572;2023-05-16T06:05:52;12.80;99.90
28075;DHT22;15385;51.088;6.572;2023-05-16T06:08:23;13.00;99.90
28075;DHT22;15385;51.088;6.572;2023-05-16T06:10:53;13.30;99.90
28075;DHT22;15385;51.088;6.572;2023-05-16T06:13:24;13.40;99.90
28075;DHT22;15385;51.088;6.572;2023-05-16T06:15:55;13.40;99.90
28075;DHT22;15385;51.088;6.572;2023-05-16T06:18:26;13.50;99.90
28075;DHT22;15385;51.088;6.572;2023-05-16T06:20:56;13.50;99.90
28075;DHT22;15385;51.088;6.572;2023-05-16T06:23:27;13.50;99.90
28075;DHT22;15385;51.088;6.572;2023-05-16T06:25:57;13.30;99.90
28075;DHT22;15385;51.088;6.572;2023-05-16T06:28:28;13.30;99.90
28075;DHT22;15385;51.088;6.572;2023-05-16T06:30:59;13.40;99.90
28075;DHT22;15385;51.088;6.572;2023-05-16T06:33:29;13.40;99.90
28075;DHT22;15385;51.088;6.572;2023-05-16T06:36:00;13.40;99.90
28075;DHT22;15385;51.088;6.572;2023-05-16T06:38:31;13.50;99.90
28075;DHT22;15385;51.088;6.572;2023-05-16T06:41:02;13.60;99.90
28075;DHT22;15385;51.088;6.572;2023-05-16T06:43:32;13.90;99.90
28075;DHT22;15385;51.088;6.572;2023-05-16T06:46:03;13.90;99.90
28075;DHT22;15385;51.088;6.572;2023-05-16T06:48:34;13.90;99.90
28075;DHT22;15385;51.088;6.572;2023-05-16T06:51:04;14.00;99.90
28075;DHT22;15385;51.088;6.572;2023-05-16T06:53:35;14.00;99.90
28075;DHT22;15385;51.088;6.572;2023-05-16T06:56:06;14.00;99.90
28075;DHT22;15385;51.088;6.572;2023-05-16T06:58:36;13.90;99.90
28075;DHT22;15385;51.088;6.572;2023-05-16T07:01:07;13.90;99.90
28075;DHT22;15385;51.088;6.572;2023-05-16T07:03:37;13.90;99.90
28075;DHT22;15385;51.088;6.572;2023-05-16T07:06:09;13.80;99.90
28075;DHT22;15385;51.088;6.572;2023-05-16T07:08:39;13.80;99.90
28075;DHT22;15385;51.088;6.572;2023-05-16T07:11:10;13.90;99.90
28075;DHT22;15385;51.088;6.572;2023-05-16T07:13:41;13.70;99.90
28075;DHT22;15385;51.088;6.572;2023-05-16T07:16:12;13.70;99.90
28075;DHT22;15385;51.088;6.572;2023-05-16T07:18:42;13.60;99.90
28075;DHT22;15385;51.088;6.572;2023-05-16T07:21:13;13.50;99.90
28075;DHT22;15385;51.088;6.572;2023-05-16T07:23:43;13.50;99.90
28075;DHT22;15385;51.088;6.572;2023-05-16T07:26:14;13.50;99.90
28075;DHT22;15385;51.088;6.572;2023-05-16T07:28:45;13.60;99.90
28075;DHT22;15385;51.088;6.572;2023-05-16T07:31:15;13.70;99.90
28075;DHT22;15385;51.088;6.572;2023-05-16T07:33:46;13.80;99.90
28075;DHT22;15385;51.088;6.572;2023-05-16T07:36:18;13.80;99.90
28075;DHT22;15385;51.088;6.572;2023-05-16T07:38:48;13.90;99.90
28075;DHT22;15385;51.088;6.572;2023-05-16T07:41:19;14.20;99.90
28075;DHT22;15385;51.088;6.572;2023-05-16T07:43:50;14.30;99.90
28075;DHT22;15385;51.088;6.572;2023-05-16T07:46:21;14.20;99.90
28075;DHT22;15385;51.088;6.572;2023-05-16T07:48:52;14.30;99.90
28075;DHT22;15385;51.088;6.572;2023-05-16T07:51:23;14.30;99.90
28075;DHT22;15385;51.088;6.572;2023-05-16T07:53:53;14.50;99.90
28075;DHT22;15385;51.088;6.572;2023-05-16T07:56:24;14.80;99.90
28075;DHT22;15385;51.088;6.572;2023-05-16T07:58:54;14.90;99.90
28075;DHT22;15385;51.088;6.572;2023-05-16T08:01:25;15.00;99.90
28075;DHT22;15385;51.088;6.572;2023-05-16T08:03:56;15.10;99.90
28075;DHT22;15385;51.088;6.572;2023-05-16T08:06:26;15.20;99.90
28075;DHT22;15385;51.088;6.572;2023-05-16T08:08:57;15.20;99.90
28075;DHT22;15385;51.088;6.572;2023-05-16T08:11:27;15.10;99.90
28075;DHT22;15385;51.088;6.572;2023-05-16T08:13:58;15.10;99.90
28075;DHT22;15385;51.088;6.572;2023-05-16T08:16:29;15.20;99.90
28075;DHT22;15385;51.088;6.572;2023-05-16T08:19:00;15.10;99.90
28075;DHT22;15385;51.088;6.572;2023-05-16T08:21:31;15.20;99.90
28075;DHT22;15385;51.088;6.572;2023-05-16T08:24:01;15.30;99.90
28075;DHT22;15385;51.088;6.572;2023-05-16T08:26:32;15.30;99.90
28075;DHT22;15385;51.088;6.572;2023-05-16T08:29:03;15.40;99.90
28075;DHT22;15385;51.088;6.572;2023-05-16T08:31:34;15.50;99.90
28075;DHT22;15385;51.088;6.572;2023-05-16T08:34:04;15.60;99.90
28075;DHT22;15385;51.088;6.572;2023-05-16T08:36:36;15.80;99.90
28075;DHT22;15385;51.088;6.572;2023-05-16T08:39:07;15.90;99.90
28075;DHT22;15385;51.088;6.572;2023-05-16T08:41:40;16.20;99.90
28075;DHT22;15385;51.088;6.572;2023-05-16T08:44:11;16.50;99.90
28075;DHT22;15385;51.088;6.572;2023-05-16T08:46:43;16.50;99.90
28075;DHT22;15385;51.088;6.572;2023-05-16T08:49:16;16.60;99.90
28075;DHT22;15385;51.088;6.572;2023-05-16T08:51:48;16.70;99.90
28075;DHT22;15385;51.088;6.572;2023-05-16T08:54:21;16.90;99.90
28075;DHT22;15385;51.088;6.572;2023-05-16T08:56:52;17.30;99.90
28075;DHT22;15385;51.088;6.572;2023-05-16T08:59:23;17.50;99.90
28075;DHT22;15385;51.088;6.572;2023-05-16T09:01:54;17.30;99.90
28075;DHT22;15385;51.088;6.572;2023-05-16T09:04:25;16.90;99.90
28075;DHT22;15385;51.088;6.572;2023-05-16T09:06:56;16.60;99.90
28075;DHT22;15385;51.088;6.572;2023-05-16T09:09:27;16.40;99.90
28075;DHT22;15385;51.088;6.572;2023-05-16T09:11:58;16.30;99.90
28075;DHT22;15385;51.088;6.572;2023-05-16T09:14:28;16.10;99.90
28075;DHT22;15385;51.088;6.572;2023-05-16T09:17:06;16.20;99.90
28075;DHT22;15385;51.088;6.572;2023-05-16T09:19:43;16.30;99.90
28075;DHT22;15385;51.088;6.572;2023-05-16T09:22:14;16.40;99.90
28075;DHT22;15385;51.088;6.572;2023-05-16T09:24:45;16.50;99.90
28075;DHT22;15385;51.088;6.572;2023-05-16T09:27:16;16.70;99.90
28075;DHT22;15385;51.088;6.572;2023-05-16T09:29:49;16.90;99.90
28075;DHT22;15385;51.088;6.572;2023-05-16T09:32:21;17.10;99.90
28075;DHT22;15385;51.088;6.572;2023-05-16T09:34:53;17.40;99.90
28075;DHT22;15385;51.088;6.572;2023-05-16T09:37:26;17.80;99.90
28075;DHT22;15385;51.088;6.572;2023-05-16T09:39:57;17.70;99.90
28075;DHT22;15385;51.088;6.572;2023-05-16T09:42:28;17.50;99.90
28075;DHT22;15385;51.088;6.572;2023-05-16T09:45:00;17.30;99.90
28075;DHT22;15385;51.088;6.572;2023-05-16T09:47:31;17.20;99.90
28075;DHT22;15385;51.088;6.572;2023-05-16T09:50:02;16.90;99.90
28075;DHT22;15385;51.088;6.572;2023-05-16T09:52:32;16.80;99.90
28075;DHT22;15385;51.088;6.572;2023-05-16T09:55:06;17.10;99.90
28075;DHT22;15385;51.088;6.572;2023-05-16T09:57:37;17.30;99.90
28075;DHT22;15385;51.088;6.572;2023-05-16T10:00:11;17.30;99.90
28075;DHT22;15385;51.088;6.572;2023-05-16T10:02:43;17.30;99.90
28075;DHT22;15385;51.088;6.572;2023-05-16T10:05:14;17.20;99.90
28075;DHT22;15385;51.088;6.572;2023-05-16T10:07:45;17.10;99.90
28075;DHT22;15385;51.088;6.572;2023-05-16T10:10:17;17.00;99.90
28075;DHT22;15385;51.088;6.572;2023-05-16T10:12:47;16.90;99.90
28075;DHT22;15385;51.088;6.572;2023-05-16T10:15:20;17.30;99.90
28075;DHT22;15385;51.088;6.572;2023-05-16T10:17:52;17.60;99.90
28075;DHT22;15385;51.088;6.572;2023-05-16T10:20:24;18.10;99.90
28075;DHT22;15385;51.088;6.572;2023-05-16T10:22:57;18.50;99.90
28075;DHT22;15385;51.088;6.572;2023-05-16T10:25:33;18.80;99.90
28075;DHT22;15385;51.088;6.572;2023-05-16T10:28:09;18.70;99.90
28075;DHT22;15385;51.088;6.572;2023-05-16T10:30:42;18.30;99.90
28075;DHT22;15385;51.088;6.572;2023-05-16T10:33:16;18.00;99.90
28075;DHT22;15385;51.088;6.572;2023-05-16T10:35:47;17.70;99.90
28075;DHT22;15385;51.088;6.572;2023-05-16T10:38:18;17.40;99.90
28075;DHT22;15385;51.088;6.572;2023-05-16T10:40:50;17.20;99.90
28075;DHT22;15385;51.088;6.572;2023-05-16T10:43:26;17.10;99.90
28075;DHT22;15385;51.088;6.572;2023-05-16T10:46:04;17.00;99.90
28075;DHT22;15385;51.088;6.572;2023-05-16T10:48:40;17.00;99.90
28075;DHT22;15385;51.088;6.572;2023-05-16T10:51:36;17.00;99.90
28075;DHT22;15385;51.088;6.572;2023-05-16T10:54:09;17.20;99.90
28075;DHT22;15385;51.088;6.572;2023-05-16T10:56:40;17.60;99.90
28075;DHT22;15385;51.088;6.572;2023-05-16T10:59:24;18.00;99.90
28075;DHT22;15385;51.088;6.572;2023-05-16T11:01:56;18.30;99.90
28075;DHT22;15385;51.088;6.572;2023-05-16T11:04:44;18.80;99.90
28075;DHT22;15385;51.088;6.572;2023-05-16T11:07:17;19.10;99.90
28075;DHT22;15385;51.088;6.572;2023-05-16T11:10:17;19.50;99.90
28075;DHT22;15385;51.088;6.572;2023-05-16T11:12:49;19.70;99.90
28075;DHT22;15385;51.088;6.572;2023-05-16T11:15:23;19.70;99.90
28075;DHT22;15385;51.088;6.572;2023-05-16T11:18:05;19.80;99.90
28075;DHT22;15385;51.088;6.572;2023-05-16T11:20:37;19.60;99.90
28075;DHT22;15385;51.088;6.572;2023-05-16T11:25:51;19.60;99.90
28075;DHT22;15385;51.088;6.572;2023-05-16T11:28:24;19.30;99.90
28075;DHT22;15385;51.088;6.572;2023-05-16T11:30:57;19.00;99.90
28075;DHT22;15385;51.088;6.572;2023-05-16T11:33:30;18.60;99.90
28075;DHT22;15385;51.088;6.572;2023-05-16T11:36:07;18.40;99.90
28075;DHT22;15385;51.088;6.572;2023-05-16T11:38:38;18.00;99.90
28075;DHT22;15385;51.088;6.572;2023-05-16T11:41:12;17.80;99.90
28075;DHT22;15385;51.088;6.572;2023-05-16T11:43:45;17.50;99.90
28075;DHT22;15385;51.088;6.572;2023-05-16T11:46:16;17.20;99.90
28075;DHT22;15385;51.088;6.572;2023-05-16T11:48:47;17.00;99.90
28075;DHT22;15385;51.088;6.572;2023-05-16T11:51:18;16.80;99.90
28075;DHT22;15385;51.088;6.572;2023-05-16T11:53:50;16.70;99.90
28075;DHT22;15385;51.088;6.572;2023-05-16T11:56:21;16.70;99.90
28075;DHT22;15385;51.088;6.572;2023-05-16T11:58:52;16.60;99.90
28075;DHT22;15385;51.088;6.572;2023-05-16T12:01:23;16.30;99.90
28075;DHT22;15385;51.088;6.572;2023-05-16T12:03:55;16.20;99.90
28075;DHT22;15385;51.088;6.572;2023-05-16T12:06:27;16.30;99.90
28075;DHT22;15385;51.088;6.572;2023-05-16T12:08:58;16.40;99.90
28075;DHT22;15385;51.088;6.572;2023-05-16T12:11:32;16.70;99.90
28075;DHT22;15385;51.088;6.572;2023-05-16T12:14:04;17.30;99.90
28075;DHT22;15385;51.088;6.572;2023-05-16T12:16:36;18.00;99.90
28075;DHT22;15385;51.088;6.572;2023-05-16T12:19:08;18.40;99.90
28075;DHT22;15385;51.088;6.572;2023-05-16T12:21:38;18.90;99.90
28075;DHT22;15385;51.088;6.572;2023-05-16T12:24:11;19.10;99.90
28075;DHT22;15385;51.088;6.572;2023-05-16T12:26:44;19.40;99.90
28075;DHT22;15385;51.088;6.572;2023-05-16T12:29:14;19.20;99.90
28075;DHT22;15385;51.088;6.572;2023-05-16T12:31:45;19.00;99.90
28075;DHT22;15385;51.088;6.572;2023-05-16T12:34:18;18.70;99.90
28075;DHT22;15385;51.088;6.572;2023-05-16T12:36:51;18.40;99.90
28075;DHT22;15385;51.088;6.572;2023-05-16T12:39:22;18.20;99.90
28075;DHT22;15385;51.088;6.572;2023-05-16T12:41:53;17.80;99.90
28075;DHT22;15385;51.088;6.572;2023-05-16T12:44:29;17.40;99.90
28075;DHT22;15385;51.088;6.572;2023-05-16T12:47:00;17.30;99.90
28075;DHT22;15385;51.088;6.572;2023-05-16T12:49:32;17.20;99.90
28075;DHT22;15385;51.088;6.572;2023-05-16T12:52:03;17.50;99.90
28075;DHT22;15385;51.088;6.572;2023-05-16T12:54:35;17.80;99.90
28075;DHT22;15385;51.088;6.572;2023-05-16T12:57:05;18.40;99.90
28075;DHT22;15385;51.088;6.572;2023-05-16T12:59:36;18.90;99.90
28075;DHT22;15385;51.088;6.572;2023-05-16T13:02:07;19.20;99.90
28075;DHT22;15385;51.088;6.572;2023-05-16T13:04:37;19.60;99.90
28075;DHT22;15385;51.088;6.572;2023-05-16T13:07:08;19.90;99.90
28075;DHT22;15385;51.088;6.572;2023-05-16T13:09:38;20.30;99.90
28075;DHT22;15385;51.088;6.572;2023-05-16T13:12:11;20.10;99.90
28075;DHT22;15385;51.088;6.572;2023-05-16T13:14:43;19.80;99.90
28075;DHT22;15385;51.088;6.572;2023-05-16T13:17:14;19.70;99.90
28075;DHT22;15385;51.088;6.572;2023-05-16T13:19:45;19.50;99.90
28075;DHT22;15385;51.088;6.572;2023-05-16T13:22:16;19.70;99.90
28075;DHT22;15385;51.088;6.572;2023-05-16T13:24:46;19.90;99.90
28075;DHT22;15385;51.088;6.572;2023-05-16T13:27:17;19.90;99.90
28075;DHT22;15385;51.088;6.572;2023-05-16T13:29:48;19.90;99.90
28075;DHT22;15385;51.088;6.572;2023-05-16T13:32:18;20.10;99.90
28075;DHT22;15385;51.088;6.572;2023-05-16T13:34:49;20.30;99.90
28075;DHT22;15385;51.088;6.572;2023-05-16T13:37:20;20.30;99.90
28075;DHT22;15385;51.088;6.572;2023-05-16T13:39:53;20.30;99.90
28075;DHT22;15385;51.088;6.572;2023-05-16T13:42:25;20.10;99.90
28075;DHT22;15385;51.088;6.572;2023-05-16T13:44:56;20.20;99.90
28075;DHT22;15385;51.088;6.572;2023-05-16T13:47:26;20.10;99.90
28075;DHT22;15385;51.088;6.572;2023-05-16T13:49:57;19.90;99.90
28075;DHT22;15385;51.088;6.572;2023-05-16T13:52:28;19.60;99.90
28075;DHT22;15385;51.088;6.572;2023-05-16T13:54:59;19.60;99.90
28075;DHT22;15385;51.088;6.572;2023-05-16T13:57:30;19.40;99.90
28075;DHT22;15385;51.088;6.572;2023-05-16T14:00:01;19.40;99.90
28075;DHT22;15385;51.088;6.572;2023-05-16T14:02:39;19.40;99.90
28075;DHT22;15385;51.088;6.572;2023-05-16T14:05:10;19.30;99.90
28075;DHT22;15385;51.088;6.572;2023-05-16T14:07:40;19.20;99.90
28075;DHT22;15385;51.088;6.572;2023-05-16T14:10:11;19.00;99.90
28075;DHT22;15385;51.088;6.572;2023-05-16T14:12:41;19.00;99.90
28075;DHT22;15385;51.088;6.572;2023-05-16T14:15:12;18.90;99.90
28075;DHT22;15385;51.088;6.572;2023-05-16T14:17:43;18.60;99.90
28075;DHT22;15385;51.088;6.572;2023-05-16T14:20:13;18.50;99.90
28075;DHT22;15385;51.088;6.572;2023-05-16T14:22:44;18.40;99.90
28075;DHT22;15385;51.088;6.572;2023-05-16T14:25:15;18.30;99.90
28075;DHT22;15385;51.088;6.572;2023-05-16T14:27:45;18.20;99.90
28075;DHT22;15385;51.088;6.572;2023-05-16T14:30:16;18.10;99.90
28075;DHT22;15385;51.088;6.572;2023-05-16T14:32:47;18.10;99.90
28075;DHT22;15385;51.088;6.572;2023-05-16T14:35:19;18.00;99.90
28075;DHT22;15385;51.088;6.572;2023-05-16T14:37:49;18.00;99.90
28075;DHT22;15385;51.088;6.572;2023-05-16T14:40:20;18.20;99.90
28075;DHT22;15385;51.088;6.572;2023-05-16T14:42:51;18.20;99.90
28075;DHT22;15385;51.088;6.572;2023-05-16T14:45:21;18.10;99.90
28075;DHT22;15385;51.088;6.572;2023-05-16T14:47:52;18.10;99.90
28075;DHT22;15385;51.088;6.572;2023-05-16T14:50:22;18.10;99.90
28075;DHT22;15385;51.088;6.572;2023-05-16T14:52:53;18.00;99.90
28075;DHT22;15385;51.088;6.572;2023-05-16T14:55:24;18.10;99.90
28075;DHT22;15385;51.088;6.572;2023-05-16T14:57:55;18.00;99.90
28075;DHT22;15385;51.088;6.572;2023-05-16T15:00:28;18.00;99.90
28075;DHT22;15385;51.088;6.572;2023-05-16T15:02:58;18.00;99.90
28075;DHT22;15385;51.088;6.572;2023-05-16T15:05:29;18.10;99.90
28075;DHT22;15385;51.088;6.572;2023-05-16T15:07:59;17.90;99.90
28075;DHT22;15385;51.088;6.572;2023-05-16T15:10:30;17.90;99.90
28075;DHT22;15385;51.088;6.572;2023-05-16T15:13:01;17.80;99.90
28075;DHT22;15385;51.088;6.572;2023-05-16T15:15:31;17.70;99.90
28075;DHT22;15385;51.088;6.572;2023-05-16T15:18:02;17.70;99.90
28075;DHT22;15385;51.088;6.572;2023-05-16T15:20:33;17.70;99.90
28075;DHT22;15385;51.088;6.572;2023-05-16T15:23:04;17.60;99.90
28075;DHT22;15385;51.088;6.572;2023-05-16T15:25:34;17.60;99.90
28075;DHT22;15385;51.088;6.572;2023-05-16T15:28:05;17.60;99.90
28075;DHT22;15385;51.088;6.572;2023-05-16T15:30:36;17.60;99.90
28075;DHT22;15385;51.088;6.572;2023-05-16T15:33:06;17.70;99.90
28075;DHT22;15385;51.088;6.572;2023-05-16T15:35:37;17.80;99.90
28075;DHT22;15385;51.088;6.572;2023-05-16T15:38:07;17.90;99.90
28075;DHT22;15385;51.088;6.572;2023-05-16T15:40:38;17.90;99.90
28075;DHT22;15385;51.088;6.572;2023-05-16T15:43:09;18.00;99.90
28075;DHT22;15385;51.088;6.572;2023-05-16T15:45:42;18.10;99.90
28075;DHT22;15385;51.088;6.572;2023-05-16T15:48:13;18.30;99.90
28075;DHT22;15385;51.088;6.572;2023-05-16T15:50:44;18.40;99.90
28075;DHT22;15385;51.088;6.572;2023-05-16T15:53:14;18.40;99.90
28075;DHT22;15385;51.088;6.572;2023-05-16T15:55:45;18.50;99.90
28075;DHT22;15385;51.088;6.572;2023-05-16T15:58:17;18.60;99.90
28075;DHT22;15385;51.088;6.572;2023-05-16T16:00:47;18.90;99.90
28075;DHT22;15385;51.088;6.572;2023-05-16T16:03:18;19.00;99.90
28075;DHT22;15385;51.088;6.572;2023-05-16T16:05:49;18.90;99.90
28075;DHT22;15385;51.088;6.572;2023-05-16T16:08:20;18.80;99.90